Time;durP1;ratioP1;P1;durP2;ratioP2;P2;SDS_P1;SDS_P2;PMS_P1;PMS_P2;Temp;Humidity;BMP_temperature;BMP_pressure;BME280_temperature;BME280_humidity;BME280_pressure;Samples;Min_cycle;Max_cycle;Signal;HPM_P1;HPM_P2
2023/04/16 00:01:23;;;;;;;16.73;7.07;;;;;;;12.14;68.32;100547.47;4963986;28;20221;-81
2023/04/16 00:03:53;;;;;;;16.55;7.10;;;;;;;12.61;68.18;100624.53;4966106;28;20057;-83
2023/04/16 00:06:21;;;;;;;18.35;6.97;;;;;;;11.71;68.40;100498.34;4983840;28;20228;-83
2023/04/16 00:08:53;;;;;;;13.70;7.55;;;;;;;12.60;68.46;100640.69;4967091;28;20061;-82
2023/04/16 00:11:28;;;;;;;12.43;7.88;;;;;;;12.74;67.65;100642.84;4968678;28;20535;-81
2023/04/16 00:14:04;;;;;;;16.85;7.50;;;;;;;12.77;67.37;100639.06;4961873;28;20077;-82
2023/04/16 00:16:31;;;;;;;11.95;7.78;;;;;;;12.78;67.29;100640.72;4966510;28;20512;-82
2023/04/16 00:18:58;;;;;;;17.08;7.95;;;;;;;12.71;67.03;100618.34;4966763;28;20295;-83
2023/04/16 00:21:25;;;;;;;12.23;7.78;;;;;;;12.72;67.35;100635.97;4965652;28;20050;-80
2023/04/16 00:24:07;;;;;;;13.23;7.28;;;;;;;12.69;67.46;100637.13;4967569;28;20504;-82
2023/04/16 00:26:33;;;;;;;17.33;7.25;;;;;;;12.66;67.92;100631.25;4968124;28;20126;-80
2023/04/16 00:29:01;;;;;;;13.80;8.02;;;;;;;12.75;66.96;100625.03;4967923;28;20496;-82
2023/04/16 00:31:29;;;;;;;12.05;7.38;;;;;;;12.35;67.25;100575.66;4965569;28;20061;-80
2023/04/16 00:33:57;;;;;;;17.48;7.80;;;;;;;11.87;67.53;100503.06;4967061;28;20088;-83
2023/04/16 00:36:28;;;;;;;15.77;7.20;;;;;;;12.27;67.26;100562.25;4965512;28;20130;-82
2023/04/16 00:38:55;;;;;;;15.95;7.65;;;;;;;12.38;67.44;100591.34;4969035;28;20315;-82
2023/04/16 00:41:22;;;;;;;20.55;7.70;;;;;;;12.26;67.76;100568.53;4967664;28;20062;-81
2023/04/16 00:43:52;;;;;;;16.77;6.82;;;;;;;12.51;67.22;100602.47;4972491;28;20046;-82
2023/04/16 00:46:22;;;;;;;;;;;;;;;12.56;68.24;100639.31;4960905;28;20361;-81
2023/04/16 00:48:57;;;;;;;12.70;6.80;;;;;;;12.48;67.97;100624.06;4946799;28;19953;-82
2023/04/16 00:51:25;;;;;;;12.07;6.57;;;;;;;12.59;67.17;100633.66;4946691;28;20512;-82
2023/04/16 00:54:05;;;;;;;15.90;7.22;;;;;;;12.79;67.15;100640.59;4954472;28;20503;-82
2023/04/16 00:56:40;;;;;;;11.65;6.93;;;;;;;12.81;66.79;100640.41;4946836;28;20278;-79
2023/04/16 00:59:09;;;;;;;11.45;6.63;;;;;;;12.37;66.75;100568.34;4946557;28;20057;-84
2023/04/16 01:01:41;;;;;;;13.60;7.38;;;;;;;12.66;67.09;100636.59;4965816;28;20506;-84
2023/04/16 01:04:33;;;;;;;19.25;7.85;;;;;;;12.57;67.57;100644.50;4960399;28;20046;-83
2023/04/16 01:07:20;;;;;;;20.05;7.65;;;;;;;12.42;67.86;100623.81;4960498;28;20137;-83
2023/04/16 01:09:50;;;;;;;15.80;6.53;;;;;;;12.52;67.92;100633.41;4962999;28;20069;-79
2023/04/16 01:12:16;;;;;;;17.73;7.35;;;;;;;12.52;67.55;100630.75;4965600;28;20042;-82
2023/04/16 01:14:43;;;;;;;15.80;7.50;;;;;;;12.27;67.25;100588.88;4967431;28;20070;-79
2023/04/16 01:17:11;;;;;;;14.82;8.18;;;;;;;12.57;67.24;100644.50;4958489;28;20050;-82
2023/04/16 01:19:41;;;;;;;14.00;7.43;;;;;;;12.57;67.60;100644.50;4966451;28;20062;-81
2023/04/16 01:22:08;;;;;;;14.13;7.75;;;;;;;12.42;66.93;100615.84;4966956;28;20157;-81
2023/04/16 01:24:49;;;;;;;11.95;8.05;;;;;;;12.36;67.58;100617.28;4957007;28;20772;-82
2023/04/16 01:27:19;;;;;;;16.05;7.75;;;;;;;12.37;67.68;100629.59;4960458;28;20064;-80
2023/04/16 01:29:46;;;;;;;15.68;8.02;;;;;;;12.09;67.28;100583.50;4960435;28;20042;-84
2023/04/16 01:32:19;;;;;;;11.25;7.72;;;;;;;12.30;67.80;100625.84;4965394;28;20054;-83
2023/04/16 01:34:46;;;;;;;19.58;8.02;;;;;;;12.45;67.89;100643.03;4958904;28;20413;-82
2023/04/16 01:37:13;;;;;;;14.15;8.25;;;;;;;12.18;68.02;100617.19;4963083;28;20104;-83
2023/04/16 01:39:42;;;;;;;13.35;7.65;;;;;;;12.07;68.72;100604.94;4967173;28;20069;-83
2023/04/16 01:42:21;;;;;;;12.98;8.00;;;;;;;12.39;68.21;100644.44;4955168;28;20073;-82
2023/04/16 01:44:48;;;;;;;13.80;7.80;;;;;;;12.40;67.81;100642.59;4971247;28;20468;-82
2023/04/16 01:47:18;;;;;;;16.02;8.55;;;;;;;12.27;67.63;100626.13;4960053;28;20051;-82
2023/04/16 01:49:49;;;;;;;16.25;7.53;;;;;;;12.39;67.99;100647.09;4962439;28;20097;-84
2023/04/16 01:52:22;;;;;;;12.75;7.75;;;;;;;12.30;68.47;100652.44;4963704;28;20069;-84
2023/04/16 01:54:57;;;;;;;14.35;7.85;;;;;;;12.20;68.62;100652.50;4965592;28;20054;-83
2023/04/16 01:57:31;;;;;;;15.48;8.63;;;;;;;12.27;69.03;100656.25;4961704;28;20555;-81
2023/04/16 01:59:59;;;;;;;11.80;7.68;;;;;;;12.29;68.61;100653.44;4950458;28;20038;-83
2023/04/16 02:02:35;;;;;;;19.25;8.02;;;;;;;12.23;68.96;100657.50;4968942;28;20404;-82
2023/04/16 02:05:06;;;;;;;12.88;8.40;;;;;;;12.25;68.50;100660.03;4956800;28;20058;-82
2023/04/16 02:07:38;;;;;;;13.52;8.35;;;;;;;12.10;68.95;100631.22;4955717;28;20260;-82
2023/04/16 02:10:09;;;;;;;;;;;;;;;12.32;68.33;100664.63;4956150;28;20058;-84
2023/04/16 02:12:35;;;;;;;9.60;7.07;;;;;;;12.07;68.72;100620.88;4955527;28;19941;-81
2023/04/16 02:15:06;;;;;;;16.63;7.82;;;;;;;12.37;68.11;100664.19;4949574;28;20050;-84
2023/04/16 02:17:33;;;;;;;11.15;8.02;;;;;;;12.23;68.66;100643.38;4959964;28;20049;-83
2023/04/16 02:20:05;;;;;;;10.90;7.60;;;;;;;12.19;68.31;100630.38;4954524;28;20401;-84
2023/04/16 02:22:34;;;;;;;11.52;7.65;;;;;;;12.17;68.49;100642.97;4964505;28;20655;-82
2023/04/16 02:25:00;;;;;;;16.98;8.20;;;;;;;12.07;69.20;100644.84;4956193;28;20054;-83
2023/04/16 02:27:27;;;;;;;13.10;7.88;;;;;;;12.16;68.65;100649.28;4963384;28;20650;-82
2023/04/16 02:29:54;;;;;;;13.27;7.82;;;;;;;12.16;68.43;100659.94;4964191;28;20140;-84
2023/04/16 02:32:24;;;;;;;16.17;8.30;;;;;;;12.11;68.63;100662.19;4965838;28;20311;-83
2023/04/16 02:34:51;;;;;;;12.63;8.57;;;;;;;12.00;69.01;100637.59;4959593;28;20108;-83
2023/04/16 02:37:24;;;;;;;14.55;8.35;;;;;;;12.24;68.16;100677.00;4958240;28;20050;-84
2023/04/16 02:39:56;;;;;;;11.75;8.07;;;;;;;12.19;68.89;100674.78;4981679;28;20496;-83
2023/04/16 02:42:23;;;;;;;11.85;8.77;;;;;;;12.21;68.53;100682.59;4952305;28;20082;-83
2023/04/16 02:44:54;;;;;;;14.20;8.50;;;;;;;12.02;68.80;100649.75;4965353;28;20050;-83
2023/04/16 02:47:24;;;;;;;23.13;8.68;;;;;;;12.14;68.03;100675.22;4952926;28;20141;-83
2023/04/16 02:49:56;;;;;;;15.25;8.93;;;;;;;12.08;68.52;100678.44;4957232;28;20058;-83
2023/04/16 02:52:27;;;;;;;15.70;8.75;;;;;;;12.10;68.18;100673.81;4960471;28;20144;-83
2023/04/16 02:54:54;;;;;;;15.00;8.95;;;;;;;12.15;68.10;100676.88;4956552;28;20054;-83
2023/04/16 02:57:22;;;;;;;16.95;8.10;;;;;;;12.07;68.20;100674.09;4958263;28;20047;-84
2023/04/16 02:59:49;;;;;;;16.27;9.55;;;;;;;11.72;68.71;100638.31;4959415;28;20051;-83
2023/04/16 03:02:18;;;;;;;9.77;8.10;;;;;;;11.93;68.38;100661.25;4940610;28;20066;-83
2023/04/16 03:04:44;;;;;;;13.07;7.93;;;;;;;12.02;68.50;100684.34;4944603;28;20050;-81
2023/04/16 03:07:21;;;;;;;16.23;8.60;;;;;;;12.05;68.74;100691.19;4951111;28;20421;-83
2023/04/16 03:09:48;;;;;;;14.50;8.45;;;;;;;12.00;68.48;100688.97;4952676;28;20500;-81
2023/04/16 03:12:22;;;;;;;11.93;7.80;;;;;;;11.87;68.31;100661.81;4954900;28;20047;-82
2023/04/16 03:14:51;;;;;;;10.65;8.65;;;;;;;11.77;68.44;100657.34;4943779;28;20054;-82
2023/04/16 03:17:18;;;;;;;16.48;8.90;;;;;;;11.86;69.04;100695.53;4955915;28;20440;-83
2023/04/16 03:19:46;;;;;;;15.13;8.55;;;;;;;11.78;69.29;100695.41;4956305;28;20053;-82
2023/04/16 03:22:13;;;;;;;13.65;8.85;;;;;;;11.80;69.14;100696.13;4963910;28;20069;-80
2023/04/16 03:24:40;;;;;;;16.92;8.98;;;;;;;11.54;69.16;100655.97;4955633;28;20054;-81
2023/04/16 03:27:12;;;;;;;18.02;9.90;;;;;;;11.47;68.78;100633.59;4954922;28;20313;-82
2023/04/16 03:29:38;;;;;;;13.02;7.82;;;;;;;11.83;68.36;100692.34;4954791;28;20509;-82
2023/04/16 03:32:05;;;;;;;13.02;8.73;;;;;;;11.69;69.03;100682.97;4946415;28;20129;-80
2023/04/16 03:34:38;;;;;;;11.27;8.15;;;;;;;11.67;68.53;100687.56;4937062;28;20050;-84
2023/04/16 03:37:10;;;;;;;9.60;8.55;;;;;;;11.65;69.46;100689.53;4947719;28;20362;-83
2023/04/16 03:39:40;;;;;;;11.35;9.18;;;;;;;11.71;69.17;100711.09;4944421;28;20050;-84
2023/04/16 03:42:11;;;;;;;13.40;8.60;;;;;;;11.78;68.98;100716.69;4939846;28;20065;-83
2023/04/16 03:44:41;;;;;;;14.05;8.73;;;;;;;11.69;68.95;100693.59;4976737;28;20268;-83
2023/04/16 03:47:08;;;;;;;19.17;8.80;;;;;;;11.07;68.67;100589.41;4963779;28;20138;-82
2023/04/16 03:49:35;;;;;;;10.68;8.10;;;;;;;11.80;68.43;100695.28;4963859;28;20273;-83
2023/04/16 03:52:02;;;;;;;15.77;9.27;;;;;;;11.75;68.56;100701.88;4961045;28;20050;-82
2023/04/16 03:54:28;;;;;;;10.63;8.43;;;;;;;11.58;68.01;100668.00;4961796;28;20057;-83
2023/04/16 03:56:55;;;;;;;12.43;8.30;;;;;;;11.77;68.25;100713.19;4956627;28;20378;-83
2023/04/16 03:59:22;;;;;;;14.68;8.90;;;;;;;10.90;68.79;100589.13;4963250;28;20047;-81
2023/04/16 04:01:52;;;;;;;16.05;9.18;;;;;;;11.53;69.23;100694.19;4958073;28;20042;-84
2023/04/16 04:04:22;;;;;;;10.88;9.10;;;;;;;11.62;69.21;100717.25;4958965;28;20076;-83
2023/04/16 04:06:49;;;;;;;12.38;9.50;;;;;;;11.60;69.07;100707.75;4961947;28;20046;-81
2023/04/16 04:09:16;;;;;;;11.48;8.82;;;;;;;11.75;67.98;100725.78;4968295;28;20046;-83
2023/04/16 04:11:43;;;;;;;13.60;9.50;;;;;;;11.48;67.77;100683.09;4962191;28;20351;-84
2023/04/16 04:14:12;;;;;;;11.95;9.10;;;;;;;11.09;68.53;100640.56;4967519;28;20570;-81
2023/04/16 04:16:40;;;;;;;12.75;9.65;;;;;;;11.24;68.36;100659.63;4983279;28;20066;-83
2023/04/16 04:19:09;;;;;;;12.82;9.85;;;;;;;11.48;68.36;100693.75;4969576;28;20100;-84
2023/04/16 04:21:40;;;;;;;22.70;10.60;;;;;;;11.20;68.21;100677.66;4976492;28;20054;-81
2023/04/16 04:24:07;;;;;;;10.48;8.85;;;;;;;11.73;67.34;100729.56;4968868;28;20137;-83
2023/04/16 04:26:34;;;;;;;12.68;10.48;;;;;;;11.47;67.96;100713.34;4961307;28;20116;-82
2023/04/16 04:29:00;;;;;;;12.43;10.00;;;;;;;11.39;68.25;100721.19;4966866;28;20429;-82
2023/04/16 04:31:40;;;;;;;15.30;10.27;;;;;;;11.47;68.19;100729.28;4963410;28;20043;-83
2023/04/16 04:34:10;;;;;;;16.95;10.15;;;;;;;11.64;68.26;100759.66;4966908;28;20299;-81
2023/04/16 04:36:37;;;;;;;13.68;10.75;;;;;;;11.43;68.19;100727.88;4979714;28;20070;-83
2023/04/16 04:39:04;;;;;;;12.65;10.38;;;;;;;11.59;68.63;100764.56;4961544;28;20485;-82
2023/04/16 04:41:31;;;;;;;12.23;10.02;;;;;;;11.56;68.54;100773.66;4967398;28;20046;-83
2023/04/16 04:44:04;;;;;;;13.93;10.38;;;;;;;11.63;68.41;100773.94;4965868;28;20492;-83
2023/04/16 04:46:31;;;;;;;16.10;10.57;;;;;;;11.40;68.46;100742.28;4966406;28;20141;-82
2023/04/16 04:48:58;;;;;;;13.50;10.27;;;;;;;11.50;68.11;100751.09;4959073;28;20047;-84
2023/04/16 04:51:25;;;;;;;14.05;10.18;;;;;;;11.64;68.29;100789.75;4954108;28;20057;-83
2023/04/16 04:53:52;;;;;;;13.75;10.15;;;;;;;11.59;67.67;100776.03;4950082;28;20051;-82
2023/04/16 04:56:19;;;;;;;15.93;10.85;;;;;;;11.49;68.20;100764.56;4943984;28;20047;-82
2023/04/16 04:58:46;;;;;;;11.63;9.95;;;;;;;11.67;68.15;100794.78;4934507;28;20057;-81
2023/04/16 05:01:16;;;;;;;14.45;10.32;;;;;;;11.42;68.28;100750.13;4940321;28;20051;-82
2023/04/16 05:03:45;;;;;;;;;;;;;;;11.65;67.61;100796.78;4942916;28;20109;-82
2023/04/16 05:06:12;;;;;;;15.38;10.63;;;;;;;11.73;67.52;100799.56;4952308;28;19972;-82
2023/04/16 05:08:39;;;;;;;17.20;10.07;;;;;;;11.24;67.24;100713.59;4962897;28;20061;-81
2023/04/16 05:11:06;;;;;;;10.52;9.32;;;;;;;11.52;66.58;100758.97;4964843;28;20054;-81
2023/04/16 05:13:45;;;;;;;13.00;9.73;;;;;;;11.74;66.47;100800.41;4957757;28;20076;-82
2023/04/16 05:16:13;;;;;;;11.45;10.32;;;;;;;11.46;66.68;100770.16;4963462;28;20154;-81
2023/04/16 05:18:40;;;;;;;12.20;9.55;;;;;;;11.53;66.44;100768.63;4962992;28;20476;-80
2023/04/16 05:21:07;;;;;;;15.80;10.32;;;;;;;11.79;66.33;100821.25;4963646;28;20043;-83
2023/04/16 05:23:33;;;;;;;14.07;9.27;;;;;;;11.70;66.67;100804.31;4958081;28;20074;-82
2023/04/16 05:26:00;;;;;;;11.43;9.52;;;;;;;11.76;66.19;100831.19;4959074;28;20050;-83
2023/04/16 05:28:27;;;;;;;18.20;9.43;;;;;;;11.75;66.32;100829.53;4967371;28;20304;-82
2023/04/16 05:31:08;;;;;;;9.75;8.50;;;;;;;11.79;66.25;100834.56;4949761;28;20435;-83
2023/04/16 05:33:44;;;;;;;14.15;9.85;;;;;;;11.53;66.67;100790.72;4937044;28;20152;-82
2023/04/16 05:36:36;;;;;;;;;;;;;;;11.45;66.50;100792.38;4950227;28;20062;-83
2023/04/16 05:39:10;;;;;;;13.70;9.07;;;;;;;11.77;66.43;100838.22;4957259;28;20542;-81
2023/04/16 05:41:37;;;;;;;12.80;8.95;;;;;;;11.79;66.44;100818.59;4963231;28;20085;-83
2023/04/16 05:44:04;;;;;;;16.60;9.30;;;;;;;11.96;66.36;100825.91;4955591;28;20381;-81
2023/04/16 05:46:41;;;;;;;14.80;9.70;;;;;;;11.84;66.23;100800.41;4955683;28;20051;-82
2023/04/16 05:49:11;;;;;;;14.50;8.48;;;;;;;12.15;65.25;100830.41;4954971;28;20090;-82
2023/04/16 05:51:48;;;;;;;12.35;7.97;;;;;;;12.13;65.33;100843.84;4976988;28;20295;-81
2023/04/16 05:54:16;;;;;;;11.85;7.65;;;;;;;11.91;65.45;100802.38;4973531;28;20054;-83
2023/04/16 05:56:43;;;;;;;16.90;7.93;;;;;;;11.27;65.13;100705.34;4961124;28;20046;-81
2023/04/16 05:59:14;;;;;;;13.10;7.85;;;;;;;12.19;65.43;100851.28;4951757;28;20169;-82
2023/04/16 06:01:41;;;;;;;11.80;7.97;;;;;;;12.12;65.24;100842.16;4930433;28;20057;-82
2023/04/16 06:04:09;;;;;;;10.68;8.02;;;;;;;12.22;65.54;100862.63;4954472;28;20337;-83
2023/04/16 06:06:37;;;;;;;8.05;6.18;;;;;;;12.27;64.87;100855.06;4978850;28;20138;-82
2023/04/16 06:09:07;;;;;;;10.15;6.97;;;;;;;12.31;64.46;100861.78;4956603;28;20442;-82
2023/04/16 06:11:38;;;;;;;11.63;7.22;;;;;;;12.34;64.68;100861.50;4931332;28;20268;-83
2023/04/16 06:14:10;;;;;;;16.27;7.40;;;;;;;12.21;64.98;100835.16;4948622;28;20057;-81
2023/04/16 06:16:47;;;;;;;9.52;6.20;;;;;;;12.48;64.04;100863.72;4958650;28;20046;-81
2023/04/16 06:19:16;;;;;;;8.20;6.20;;;;;;;12.43;63.96;100852.66;4960407;28;20046;-80
2023/04/16 06:21:46;;;;;;;9.75;6.95;;;;;;;12.42;63.88;100844.81;4959121;28;20054;-81
2023/04/16 06:24:13;;;;;;;10.10;6.78;;;;;;;12.22;63.67;100809.38;4953228;28;20245;-83
2023/04/16 06:26:43;;;;;;;12.40;6.60;;;;;;;12.53;63.90;100861.47;4976108;28;20519;-83
2023/04/16 06:29:10;;;;;;;8.35;5.82;;;;;;;12.45;63.87;100864.00;4948474;28;20063;-83
2023/04/16 06:31:38;;;;;;;9.48;6.18;;;;;;;12.58;64.06;100877.03;4962505;28;20519;-83
2023/04/16 06:34:04;;;;;;;10.63;5.57;;;;;;;12.36;63.18;100839.06;4958457;28;20289;-83
2023/04/16 06:36:42;;;;;;;9.18;4.97;;;;;;;12.46;63.08;100849.69;4952458;28;20493;-82
2023/04/16 06:39:12;;;;;;;8.52;5.20;;;;;;;12.62;62.37;100849.09;4957305;28;20057;-82
2023/04/16 06:41:39;;;;;;;8.30;5.82;;;;;;;12.78;62.48;100872.47;4959381;28;20046;-83
2023/04/16 06:44:05;;;;;;;9.30;5.70;;;;;;;12.85;62.77;100870.09;4963294;28;20700;-83
2023/04/16 06:46:33;;;;;;;6.05;5.45;;;;;;;12.49;62.13;100809.47;4951775;28;20548;-83
2023/04/16 06:49:00;;;;;;;6.78;5.32;;;;;;;12.85;61.00;100865.59;4940354;28;20051;-82
2023/04/16 06:51:43;;;;;;;5.82;4.15;;;;;;;12.66;59.81;100833.69;4940879;28;20563;-83
2023/04/16 06:54:13;;;;;;;13.50;5.05;;;;;;;12.70;60.14;100851.91;4943276;28;20050;-81
2023/04/16 06:56:43;;;;;;;8.98;4.70;;;;;;;12.86;59.62;100871.75;4942527;28;20767;-82
2023/04/16 06:59:17;;;;;;;5.15;4.22;;;;;;;13.00;59.86;100880.13;4955571;28;20666;-82
2023/04/16 07:01:53;;;;;;;7.53;4.72;;;;;;;12.80;60.02;100857.19;4973392;28;20050;-83
2023/04/16 07:04:27;;;;;;;7.78;4.95;;;;;;;11.87;59.97;100691.06;4960874;28;20349;-82
2023/04/16 07:07:03;;;;;;;4.93;4.28;;;;;;;13.03;60.09;100879.84;4954918;28;20050;-83
2023/04/16 07:09:31;;;;;;;7.55;4.35;;;;;;;13.09;58.82;100872.25;4958801;28;20705;-82
2023/04/16 07:11:57;;;;;;;5.35;4.30;;;;;;;12.88;58.84;100833.31;4962743;28;20050;-83
2023/04/16 07:14:43;;;;;;;6.00;3.97;;;;;;;13.29;58.47;100883.72;4962516;28;20046;-82
2023/04/16 07:17:13;;;;;;;9.63;4.57;;;;;;;13.18;58.71;100871.34;4957004;28;20043;-82
2023/04/16 07:19:43;;;;;;;5.93;4.30;;;;;;;13.12;58.89;100864.78;4951559;28;20047;-82
2023/04/16 07:22:14;;;;;;;4.97;3.58;;;;;;;13.37;57.85;100881.97;4958186;28;20050;-83
2023/04/16 07:24:46;;;;;;;7.28;4.15;;;;;;;13.27;57.40;100857.19;4954821;28;20535;-84
2023/04/16 07:27:15;;;;;;;5.93;4.63;;;;;;;13.41;57.41;100867.34;4954973;28;20077;-83
2023/04/16 07:29:44;;;;;;;9.05;4.03;;;;;;;13.61;56.94;100888.59;4959296;28;20054;-83
2023/04/16 07:32:12;;;;;;;5.70;3.67;;;;;;;13.56;57.17;100882.88;4960009;28;20054;-80
2023/04/16 07:34:41;;;;;;;4.50;3.13;;;;;;;12.06;56.77;100650.28;4964545;28;20097;-82
2023/04/16 07:37:11;;;;;;;5.65;3.90;;;;;;;12.70;57.02;100772.00;4967132;28;20070;-83
2023/04/16 07:39:41;;;;;;;4.30;3.53;;;;;;;13.38;57.07;100861.50;4945782;28;20113;-80
2023/04/16 07:42:14;;;;;;;6.00;3.70;;;;;;;13.55;56.78;100884.69;4949101;28;20146;-81
2023/04/16 07:44:41;;;;;;;5.68;3.17;;;;;;;13.74;57.04;100898.91;4959787;28;20054;-82
2023/04/16 07:47:08;;;;;;;5.75;3.70;;;;;;;13.86;55.66;100895.88;4960281;28;20069;-82
2023/04/16 07:49:35;;;;;;;4.57;3.47;;;;;;;13.66;55.76;100859.63;4958785;28;20120;-83
2023/04/16 07:52:02;;;;;;;9.25;2.63;;;;;;;13.83;55.12;100898.84;4964286;28;20062;-82
2023/04/16 07:54:29;;;;;;;3.65;2.30;;;;;;;13.88;53.41;100896.59;4961325;28;20047;-81
2023/04/16 07:57:04;;;;;;;5.00;3.45;;;;;;;13.84;54.08;100895.19;4957277;28;20472;-81
2023/04/16 07:59:35;;;;;;;4.50;2.97;;;;;;;13.87;54.55;100896.72;4964279;28;20058;-80
2023/04/16 08:02:13;;;;;;;6.60;3.40;;;;;;;13.87;55.01;100902.91;4958773;28;20051;-81
2023/04/16 08:05:05;;;;;;;3.70;2.92;;;;;;;13.98;54.75;100907.19;4977232;28;20322;-81
2023/04/16 08:07:33;;;;;;;5.07;3.13;;;;;;;14.04;54.41;100903.06;4943205;28;20183;-82
2023/04/16 08:10:04;;;;;;;5.95;3.50;;;;;;;14.05;54.46;100907.41;4935214;28;20389;-84
2023/04/16 08:12:31;;;;;;;9.70;3.53;;;;;;;14.04;54.58;100913.75;4942306;28;20516;-84
2023/04/16 08:14:58;;;;;;;7.22;3.28;;;;;;;14.09;54.65;100898.13;4967883;28;20046;-81
2023/04/16 08:17:34;;;;;;;5.05;3.80;;;;;;;14.14;54.83;100901.16;4957397;28;20500;-81
2023/04/16 08:20:07;;;;;;;6.68;4.22;;;;;;;14.15;54.58;100908.19;4976532;28;20520;-83
2023/04/16 08:22:34;;;;;;;6.35;4.25;;;;;;;14.20;54.70;100921.94;4961161;28;20054;-83
2023/04/16 08:25:03;;;;;;;5.38;3.90;;;;;;;14.03;54.48;100888.88;4960280;28;20046;-82
2023/04/16 08:27:38;;;;;;;3.97;3.58;;;;;;;14.23;54.25;100916.28;4947295;28;20269;-82
2023/04/16 08:30:20;;;;;;;5.65;3.97;;;;;;;13.69;54.72;100816.66;4957524;28;20105;-83
2023/04/16 08:32:51;;;;;;;5.82;3.70;;;;;;;14.31;54.77;100894.97;4953701;28;20061;-81
2023/04/16 08:35:18;;;;;;;4.05;3.42;;;;;;;14.54;53.45;100926.59;4958911;28;20464;-83
2023/04/16 08:37:50;;;;;;;4.88;3.67;;;;;;;14.47;53.39;100912.97;4963088;28;20058;-83
2023/04/16 08:40:23;;;;;;;5.00;3.67;;;;;;;14.64;53.47;100923.84;4942709;28;20265;-81
2023/04/16 08:42:59;;;;;;;4.75;3.28;;;;;;;14.72;51.92;100927.41;4973035;28;20051;-82
2023/04/16 08:45:33;;;;;;;4.93;3.88;;;;;;;14.65;52.17;100914.81;4977385;28;20141;-83
2023/04/16 08:48:04;;;;;;;4.68;3.50;;;;;;;14.08;52.30;100817.19;4959801;28;20213;-80
2023/04/16 08:50:33;;;;;;;10.32;3.63;;;;;;;14.87;51.77;100921.50;4960134;28;20052;-82
2023/04/16 08:53:19;;;;;;;4.20;3.63;;;;;;;14.78;51.42;100907.22;4973941;28;20046;-82
2023/04/16 08:55:49;;;;;;;4.95;3.63;;;;;;;14.87;51.89;100913.47;4967279;28;20412;-82
2023/04/16 08:58:21;;;;;;;3.72;3.42;;;;;;;15.01;51.72;100914.75;4964452;28;20054;-82
2023/04/16 09:00:48;;;;;;;5.95;3.40;;;;;;;15.08;51.73;100921.97;4962149;28;20054;-82
2023/04/16 09:03:15;;;;;;;6.00;3.50;;;;;;;14.80;51.44;100875.00;4968125;28;20058;-83
2023/04/16 09:05:48;;;;;;;4.88;3.38;;;;;;;14.69;51.21;100836.88;4950718;28;20050;-82
2023/04/16 09:08:22;;;;;;;8.55;3.80;;;;;;;14.41;51.67;100771.19;4960148;28;20046;-81
2023/04/16 09:10:54;;;;;;;5.20;3.67;;;;;;;15.31;51.04;100926.75;4981703;28;20402;-82
2023/04/16 09:13:24;;;;;;;4.13;3.75;;;;;;;15.07;51.13;100866.81;4973118;28;20440;-81
2023/04/16 09:15:55;;;;;;;8.07;3.90;;;;;;;15.51;50.52;100920.19;4959370;28;20614;-81
2023/04/16 09:18:33;;;;;;;9.43;3.30;;;;;;;15.70;50.29;100921.78;4960449;28;20112;-83
2023/04/16 09:21:04;;;;;;;2.70;2.50;;;;;;;15.16;49.41;100812.38;4966126;28;20424;-82
2023/04/16 09:23:36;;;;;;;4.80;3.67;;;;;;;15.86;49.55;100926.34;4955996;28;20479;-83
2023/04/16 09:26:07;;;;;;;8.25;3.80;;;;;;;15.87;49.27;100901.25;4966637;28;20061;-82
2023/04/16 09:28:45;;;;;;;3.63;2.90;;;;;;;15.68;49.40;100853.31;4959712;28;20073;-82
2023/04/16 09:31:17;;;;;;;8.73;4.43;;;;;;;16.20;48.66;100915.53;4957799;28;20586;-82
2023/04/16 09:34:07;;;;;;;5.47;3.15;;;;;;;16.03;48.40;100874.50;4977253;28;20046;-82
2023/04/16 09:36:38;;;;;;;4.72;3.85;;;;;;;16.42;48.40;100889.09;4956326;28;20336;-84
2023/04/16 09:39:18;;;;;;;5.55;3.40;;;;;;;16.39;47.99;100909.03;4955327;28;20535;-82
2023/04/16 09:41:54;;;;;;;3.70;3.30;;;;;;;16.54;47.87;100903.84;4949906;28;20325;-82
2023/04/16 09:44:36;;;;;;;5.05;3.65;;;;;;;16.70;48.02;100924.44;4950357;28;20524;-83
2023/04/16 09:47:08;;;;;;;6.45;3.40;;;;;;;16.65;47.47;100890.09;4962870;28;20399;-82
2023/04/16 09:49:49;;;;;;;2.92;2.70;;;;;;;16.78;46.64;100896.78;4961229;28;20054;-83
2023/04/16 09:52:18;;;;;;;4.22;2.47;;;;;;;16.90;45.36;100891.94;4963833;28;20385;-83
2023/04/16 09:54:58;;;;;;;5.40;2.55;;;;;;;16.72;44.19;100846.53;4965859;28;20431;-81
2023/04/16 09:57:26;;;;;;;2.17;1.90;;;;;;;17.36;43.61;100914.44;4968594;28;20050;-82
2023/04/16 09:59:56;;;;;;;2.58;2.08;;;;;;;17.38;43.20;100890.97;4968103;28;20046;-83
2023/04/16 10:02:28;;;;;;;2.90;1.98;;;;;;;17.36;43.13;100876.88;4966389;28;20748;-83
2023/04/16 10:04:59;;;;;;;2.60;2.07;;;;;;;17.15;42.72;100818.44;4955056;28;20074;-82
2023/04/16 10:07:33;;;;;;;2.72;2.00;;;;;;;17.69;42.07;100845.34;4964984;28;20053;-83
2023/04/16 10:10:06;;;;;;;6.43;2.20;;;;;;;18.23;41.84;100911.66;4969331;28;20050;-83
2023/04/16 10:12:35;;;;;;;3.10;1.73;;;;;;;17.95;41.26;100838.81;4965408;28;20077;-83
2023/04/16 10:15:03;;;;;;;2.13;1.80;;;;;;;17.92;40.62;100828.44;4968570;28;20286;-81
2023/04/16 10:17:30;;;;;;;4.13;2.15;;;;;;;17.69;40.17;100770.19;4966978;28;20519;-83
2023/04/16 10:20:04;;;;;;;2.95;2.22;;;;;;;17.55;39.90;100719.94;4964270;28;20050;-82
2023/04/16 10:22:38;;;;;;;3.38;2.22;;;;;;;18.41;40.17;100844.16;4965537;28;20061;-83
2023/04/16 10:25:08;;;;;;;4.10;2.33;;;;;;;17.88;40.79;100792.22;4963043;28;20511;-81
2023/04/16 10:27:47;;;;;;;2.65;2.17;;;;;;;18.64;41.45;100905.09;4968653;28;20140;-82
2023/04/16 10:30:21;;;;;;;3.15;1.90;;;;;;;17.30;41.35;100733.50;4965518;28;20062;-84
2023/04/16 10:32:49;;;;;;;2.50;2.30;;;;;;;18.53;41.87;100901.84;4967010;28;20112;-80
2023/04/16 10:35:27;;;;;;;2.40;2.03;;;;;;;18.40;40.62;100837.13;4960207;28;20315;-83
2023/04/16 10:38:12;;;;;;;8.35;2.58;;;;;;;18.88;40.42;100861.03;4965175;28;20370;-80
2023/04/16 10:41:04;;;;;;;3.53;2.55;;;;;;;18.92;40.40;100884.69;4957158;28;20054;-81
2023/04/16 10:43:42;;;;;;;5.10;2.97;;;;;;;18.99;39.85;100839.06;4964993;28;20347;-83
2023/04/16 10:46:21;;;;;;;3.13;2.40;;;;;;;19.71;39.47;100921.84;4967340;28;20273;-82
2023/04/16 10:48:52;;;;;;;4.00;2.28;;;;;;;19.26;39.03;100826.78;4971077;28;20055;-83
2023/04/16 10:51:37;;;;;;;2.38;1.77;;;;;;;19.65;38.94;100903.69;4974165;28;20046;-82
2023/04/16 10:54:07;;;;;;;4.63;2.08;;;;;;;19.89;39.51;100916.03;4978946;28;20365;-84
2023/04/16 10:56:35;;;;;;;3.85;1.75;;;;;;;19.82;39.19;100913.25;4966782;28;20050;-84
2023/04/16 10:59:09;;;;;;;1.10;1.00;;;;;;;19.65;38.20;100906.38;4966875;28;20133;-81
2023/04/16 11:01:42;;;;;;;4.00;0.90;;;;;;;19.90;37.56;100914.16;4961749;28;20282;-84
2023/04/16 11:04:18;;;;;;;3.42;1.05;;;;;;;20.27;36.84;100911.25;4965040;28;20061;-83
2023/04/16 11:07:12;;;;;;;3.28;1.52;;;;;;;20.48;36.93;100906.84;4962552;28;20068;-82
2023/04/16 11:10:06;;;;;;;4.50;1.58;;;;;;;20.41;37.71;100906.81;4968761;28;20259;-83
2023/04/16 11:12:45;;;;;;;1.67;1.25;;;;;;;20.04;37.50;100899.81;4966824;28;20129;-82
2023/04/16 11:15:22;;;;;;;1.45;1.30;;;;;;;20.01;37.48;100900.19;4938869;28;20311;-81
2023/04/16 11:18:06;;;;;;;3.75;1.77;;;;;;;19.60;37.61;100779.53;4959357;28;20061;-81
2023/04/16 11:20:43;;;;;;;3.20;1.48;;;;;;;20.10;35.62;100866.72;4960697;28;20042;-81
2023/04/16 11:23:12;;;;;;;1.85;0.95;;;;;;;19.39;34.28;100751.59;4962741;28;20280;-82
2023/04/16 11:25:39;;;;;;;3.45;1.10;;;;;;;20.20;35.23;100880.69;4961209;28;20050;-83
2023/04/16 11:28:30;;;;;;;1.83;0.85;;;;;;;19.35;34.65;100738.69;4964291;28;20411;-83
2023/04/16 11:31:12;;;;;;;4.22;0.85;;;;;;;20.11;34.09;100884.53;4964312;28;20359;-83
2023/04/16 11:33:39;;;;;;;3.80;1.60;;;;;;;19.84;35.04;100841.16;4962800;28;20074;-82
2023/04/16 11:36:07;;;;;;;2.10;1.70;;;;;;;20.28;34.65;100901.28;4946047;28;20047;-82
2023/04/16 11:38:39;;;;;;;1.58;1.23;;;;;;;20.43;34.17;100874.25;4948325;28;20309;-83
2023/04/16 11:41:07;;;;;;;1.60;1.00;;;;;;;20.29;32.56;100800.50;4944057;28;20055;-83